Prospect Heights, Illinois
Current Conditions -  °F | °C
As of 5:52 PM on Thursday 18 Dec 2014 (Local Time) from KPWK Reporting Station
Overcast Overcast  
Wind Chill: 22°   Ceiling: 2700
Heat Index: 28°   Visibility: 10mi
Dew Point: 19°   Wind: 6mph
Humidity: 69%   Direction: 340°NNW
Pressure: 30.26"   Gusts: NA
Location:  42.1°N, 87.94°W
Report Text: KPWK 182352Z 34005KT 10SM OVC027 M02/M07 A3026 RMK AO2 SLP257 T10221072 11022 21039 53008
Loading
Personal Weather Stations






























Interactive Weather Map New forecast layout! Learn more

10-Day Weather Forecast

Advertisements
Track Severe Weather on mobile